Emily Golding — WDI9033 — position and weather

sailwx.info

Track history (hours):
 
Tides and Currents Weather Stations Pressure Air Temp Water Temp Dewpoint Dewpoint Depression Visibility Wind Speed Wind Dir Waves Ship Positions

Emily Golding

Owner: GOLDING BARGE LINE, VICKSBURG, MS. More information available from US FCC via Universal Licensing System and Coast Guard Vessel Documentation Center.

Last reported at 2018-Feb-14 17:52 UTC. Time now 2018-Feb-21 05:43 UTC.
Position N 29°46' W 095°05'.

Length 31 m; draft 3 m.

Type: Towing. MMSI: 367744620.

Date/timePositionNaut miles runAvg speedWind from/ knotsBaromVisibWave heightAir tempDewpointWater temp
2018-Feb-14 17:52N 29°46' W 095°05'2 0.1
2018-Feb-14 00:31N 29°45' W 095°04'3 6.2
2018-Feb-14 00:04N 29°43' W 095°01'1 7.6
2018-Feb-13 23:58N 29°42' W 095°01'4 7.8
2018-Feb-13 23:30N 29°40' W 094°58'6 8.2
2018-Feb-13 22:44N 29°34' W 094°55'17 3.6
2018-Feb-13 18:02N 29°29' W 094°37'0 4.7
2018-Feb-13 18:00N 29°29' W 094°36'7 4.8
2018-Feb-13 16:39N 29°31' W 094°29'1 5.8
2018-Feb-13 16:28N 29°32' W 094°29'6 4.1
2018-Feb-13 15:06N 29°36' W 094°24'1 4.6
2018-Feb-13 14:55N 29°36' W 094°23'2 5.1
2018-Feb-13 14:30N 29°37' W 094°21'3 5.1
2018-Feb-13 14:00N 29°38' W 094°18'3 5.1
2018-Feb-13 13:30N 29°39' W 094°16'2 5.0
2018-Feb-13 13:00N 29°40' W 094°13'2 4.7
2018-Feb-13 12:30N 29°41' W 094°10'2 4.6
2018-Feb-13 12:00N 29°42' W 094°08'2 4.5
2018-Feb-13 11:30N 29°44' W 094°06'3 5.3
2018-Feb-13 11:00N 29°45' W 094°04'3 5.3
2018-Feb-13 10:30N 29°47' W 094°01'2 3.4
2018-Feb-13 10:00N 29°48' W 094°00'2 3.6
2018-Feb-13 09:30N 29°49' W 093°58'2 4.5
2018-Feb-13 09:00N 29°51' W 093°57'3 6.1
2018-Feb-13 08:30N 29°53' W 093°55'3 5.9
2018-Feb-13 08:00N 29°56' W 093°53'3 5.7
2018-Feb-13 07:30N 29°58' W 093°51'2 4.8
2018-Feb-13 07:00N 29°59' W 093°48'3 5.3
2018-Feb-13 06:30N 30°01' W 093°46'3 5.2
2018-Feb-13 05:59N 30°03' W 093°44'3 5.5
2018-Feb-13 05:27N 30°04' W 093°41'3 5.8
2018-Feb-13 04:57N 30°04' W 093°37'2 5.4
2018-Feb-13 04:30N 30°04' W 093°35'3 5.1
2018-Feb-13 04:00N 30°04' W 093°32'3 5.1
2018-Feb-13 03:30N 30°04' W 093°29'3 5.0
2018-Feb-13 03:00N 30°04' W 093°26'3 4.9
2018-Feb-13 02:25N 30°04' W 093°22'0 0.5
2018-Feb-13 02:01N 30°04' W 093°22'1 1.1
2018-Feb-13 01:20N 30°04' W 093°21'0 0.0
2018-Feb-13 00:44N 30°04' W 093°21'0 0.0
2018-Feb-13 00:29N 30°04' W 093°21'0 0.0
2018-Feb-12 23:59N 30°04' W 093°21'0 0.0
2018-Feb-12 23:02N 30°04' W 093°21'0 0.0
2018-Feb-12 22:59N 30°04' W 093°21'1 1.5
2018-Feb-12 22:30N 30°04' W 093°22'0 0.0
2018-Feb-12 22:00N 30°04' W 093°22'0 0.1
2018-Feb-12 21:24N 30°04' W 093°22'0 0.0
2018-Feb-12 20:54N 30°04' W 093°22'0 0.0
2018-Feb-12 20:24N 30°04' W 093°22'0 0.1
2018-Feb-12 20:00N 30°04' W 093°22'0 0.0
2018-Feb-12 19:28N 30°04' W 093°22'1 2.7
2018-Feb-12 19:00N 30°04' W 093°21'2 3.1
2018-Feb-12 18:30N 30°05' W 093°20'2 3.0
2018-Feb-12 18:00N 30°06' W 093°18'2 4.3
2018-Feb-12 17:29N 30°04' W 093°16'2 4.9
2018-Feb-12 17:00N 30°02' W 093°15'3 4.7
2018-Feb-12 16:28N 29°60' W 093°13'1 1.7
2018-Feb-12 16:00N 29°59' W 093°13'3 5.2
2018-Feb-12 15:30N 29°57' W 093°11'2 4.4
2018-Feb-12 14:59N 29°56' W 093°08'41 4.1
2018-Feb-12 05:03N 29°51' W 092°22'0 4.0
2018-Feb-12 05:00N 29°51' W 092°22'2 4.1
2018-Feb-12 04:30N 29°50' W 092°19'2 3.3
2018-Feb-12 03:56N 29°49' W 092°17'2 3.5
2018-Feb-12 03:29N 29°48' W 092°16'2 4.1
2018-Feb-12 03:00N 29°48' W 092°14'2 3.5
2018-Feb-12 02:30N 29°47' W 092°12'1 2.2
2018-Feb-12 01:58N 29°47' W 092°11'2 4.2
2018-Feb-12 01:30N 29°47' W 092°09'2 4.5
2018-Feb-12 01:00N 29°48' W 092°06'2 4.0
2018-Feb-12 00:30N 29°48' W 092°04'2 4.6
2018-Feb-12 00:00N 29°49' W 092°01'58 3.5
2018-Feb-11 07:15N 29°34' W 090°57'1 3.5
2018-Feb-11 07:00N 29°34' W 090°56'2 3.9
2018-Feb-11 06:27N 29°33' W 090°54'2 4.2
2018-Feb-11 06:00N 29°32' W 090°52'2 4.5
2018-Feb-11 05:30N 29°32' W 090°49'2 4.4
2018-Feb-11 05:00N 29°32' W 090°47'1 2.8
2018-Feb-11 04:30N 29°33' W 090°45'1 1.4
2018-Feb-11 04:01N 29°34' W 090°45'2 3.7
2018-Feb-11 03:29N 29°34' W 090°43'2 3.5
2018-Feb-11 03:00N 29°36' W 090°43'1 2.4
2018-Feb-11 02:29N 29°36' W 090°41'2 3.2
2018-Feb-11 02:00N 29°36' W 090°40'2 3.9
2018-Feb-11 01:30N 29°35' W 090°38'2 3.2
2018-Feb-11 01:00N 29°35' W 090°36'2 3.9
2018-Feb-11 00:30N 29°34' W 090°34'2 4.2
2018-Feb-11 00:00N 29°34' W 090°31'2 4.4
2018-Feb-10 23:29N 29°34' W 090°29'  
Track history (hours):
 
Tides and Currents Weather Stations Pressure Air Temp Water Temp Dewpoint Dewpoint Depression Visibility Wind Speed Wind Dir Waves Ship Positions

Emily Golding

Owner: GOLDING BARGE LINE, VICKSBURG, MS. More information available from US FCC via Universal Licensing System and Coast Guard Vessel Documentation Center.

Last reported at 2018-Feb-14 17:52 UTC. Time now 2018-Feb-21 05:43 UTC.
Position N 29°46' W 095°05'.

Length 31 m; draft 3 m.

Type: Towing. MMSI: 367744620.

Date/timePositionNaut miles runAvg speedWind from/ knotsBaromVisibWave heightAir tempDewpointWater temp
2018-Feb-14 17:52N 29°46' W 095°05'2 0.1
2018-Feb-14 00:31N 29°45' W 095°04'3 6.2
2018-Feb-14 00:04N 29°43' W 095°01'1 7.6
2018-Feb-13 23:58N 29°42' W 095°01'4 7.8
2018-Feb-13 23:30N 29°40' W 094°58'6 8.2
2018-Feb-13 22:44N 29°34' W 094°55'17 3.6
2018-Feb-13 18:02N 29°29' W 094°37'0 4.7
2018-Feb-13 18:00N 29°29' W 094°36'7 4.8
2018-Feb-13 16:39N 29°31' W 094°29'1 5.8
2018-Feb-13 16:28N 29°32' W 094°29'6 4.1
2018-Feb-13 15:06N 29°36' W 094°24'1 4.6
2018-Feb-13 14:55N 29°36' W 094°23'2 5.1
2018-Feb-13 14:30N 29°37' W 094°21'3 5.1
2018-Feb-13 14:00N 29°38' W 094°18'3 5.1
2018-Feb-13 13:30N 29°39' W 094°16'2 5.0
2018-Feb-13 13:00N 29°40' W 094°13'2 4.7
2018-Feb-13 12:30N 29°41' W 094°10'2 4.6
2018-Feb-13 12:00N 29°42' W 094°08'2 4.5
2018-Feb-13 11:30N 29°44' W 094°06'3 5.3
2018-Feb-13 11:00N 29°45' W 094°04'3 5.3
2018-Feb-13 10:30N 29°47' W 094°01'2 3.4
2018-Feb-13 10:00N 29°48' W 094°00'2 3.6
2018-Feb-13 09:30N 29°49' W 093°58'2 4.5
2018-Feb-13 09:00N 29°51' W 093°57'3 6.1
2018-Feb-13 08:30N 29°53' W 093°55'3 5.9
2018-Feb-13 08:00N 29°56' W 093°53'3 5.7
2018-Feb-13 07:30N 29°58' W 093°51'2 4.8
2018-Feb-13 07:00N 29°59' W 093°48'3 5.3
2018-Feb-13 06:30N 30°01' W 093°46'3 5.2
2018-Feb-13 05:59N 30°03' W 093°44'3 5.5
2018-Feb-13 05:27N 30°04' W 093°41'3 5.8
2018-Feb-13 04:57N 30°04' W 093°37'2 5.4
2018-Feb-13 04:30N 30°04' W 093°35'3 5.1
2018-Feb-13 04:00N 30°04' W 093°32'3 5.1
2018-Feb-13 03:30N 30°04' W 093°29'3 5.0
2018-Feb-13 03:00N 30°04' W 093°26'3 4.9
2018-Feb-13 02:25N 30°04' W 093°22'0 0.5
2018-Feb-13 02:01N 30°04' W 093°22'1 1.1
2018-Feb-13 01:20N 30°04' W 093°21'0 0.0
2018-Feb-13 00:44N 30°04' W 093°21'0 0.0
2018-Feb-13 00:29N 30°04' W 093°21'0 0.0
2018-Feb-12 23:59N 30°04' W 093°21'0 0.0
2018-Feb-12 23:02N 30°04' W 093°21'0 0.0
2018-Feb-12 22:59N 30°04' W 093°21'1 1.5
2018-Feb-12 22:30N 30°04' W 093°22'0 0.0
2018-Feb-12 22:00N 30°04' W 093°22'0 0.1
2018-Feb-12 21:24N 30°04' W 093°22'0 0.0
2018-Feb-12 20:54N 30°04' W 093°22'0 0.0
2018-Feb-12 20:24N 30°04' W 093°22'0 0.1
2018-Feb-12 20:00N 30°04' W 093°22'0 0.0
2018-Feb-12 19:28N 30°04' W 093°22'1 2.7
2018-Feb-12 19:00N 30°04' W 093°21'2 3.1
2018-Feb-12 18:30N 30°05' W 093°20'2 3.0
2018-Feb-12 18:00N 30°06' W 093°18'2 4.3
2018-Feb-12 17:29N 30°04' W 093°16'2 4.9
2018-Feb-12 17:00N 30°02' W 093°15'3 4.7
2018-Feb-12 16:28N 29°60' W 093°13'1 1.7
2018-Feb-12 16:00N 29°59' W 093°13'3 5.2
2018-Feb-12 15:30N 29°57' W 093°11'2 4.4
2018-Feb-12 14:59N 29°56' W 093°08'41 4.1
2018-Feb-12 05:03N 29°51' W 092°22'0 4.0
2018-Feb-12 05:00N 29°51' W 092°22'2 4.1
2018-Feb-12 04:30N 29°50' W 092°19'2 3.3
2018-Feb-12 03:56N 29°49' W 092°17'2 3.5
2018-Feb-12 03:29N 29°48' W 092°16'2 4.1
2018-Feb-12 03:00N 29°48' W 092°14'2 3.5
2018-Feb-12 02:30N 29°47' W 092°12'1 2.2
2018-Feb-12 01:58N 29°47' W 092°11'2 4.2
2018-Feb-12 01:30N 29°47' W 092°09'2 4.5
2018-Feb-12 01:00N 29°48' W 092°06'2 4.0
2018-Feb-12 00:30N 29°48' W 092°04'2 4.6
2018-Feb-12 00:00N 29°49' W 092°01'58 3.5
2018-Feb-11 07:15N 29°34' W 090°57'1 3.5
2018-Feb-11 07:00N 29°34' W 090°56'2 3.9
2018-Feb-11 06:27N 29°33' W 090°54'2 4.2
2018-Feb-11 06:00N 29°32' W 090°52'2 4.5
2018-Feb-11 05:30N 29°32' W 090°49'2 4.4
2018-Feb-11 05:00N 29°32' W 090°47'1 2.8
2018-Feb-11 04:30N 29°33' W 090°45'1 1.4
2018-Feb-11 04:01N 29°34' W 090°45'2 3.7
2018-Feb-11 03:29N 29°34' W 090°43'2 3.5
2018-Feb-11 03:00N 29°36' W 090°43'1 2.4
2018-Feb-11 02:29N 29°36' W 090°41'2 3.2
2018-Feb-11 02:00N 29°36' W 090°40'2 3.9
2018-Feb-11 01:30N 29°35' W 090°38'2 3.2
2018-Feb-11 01:00N 29°35' W 090°36'2 3.9
2018-Feb-11 00:30N 29°34' W 090°34'2 4.2
2018-Feb-11 00:00N 29°34' W 090°31'2 4.4
2018-Feb-10 23:29N 29°34' W 090°29'  

Dump ship's entire track history